sensor_id;sensor_type;location;lat;lon;timestamp;P1;durP1;ratioP1;P2;durP2;ratioP2
36423;SDS011;22458;45.328;9.514;2022-08-19T00:01:46;4.78;;;3.22;;
36423;SDS011;22458;45.328;9.514;2022-08-19T00:04:14;5.95;;;3.28;;
36423;SDS011;22458;45.328;9.514;2022-08-19T00:06:42;3.22;;;2.60;;
36423;SDS011;22458;45.328;9.514;2022-08-19T00:09:11;4.53;;;2.88;;
36423;SDS011;22458;45.328;9.514;2022-08-19T00:11:39;6.15;;;3.25;;
36423;SDS011;22458;45.328;9.514;2022-08-19T00:14:07;3.70;;;2.80;;
36423;SDS011;22458;45.328;9.514;2022-08-19T00:16:35;4.85;;;3.17;;
36423;SDS011;22458;45.328;9.514;2022-08-19T00:19:03;4.03;;;3.00;;
36423;SDS011;22458;45.328;9.514;2022-08-19T00:21:29;6.15;;;2.75;;
36423;SDS011;22458;45.328;9.514;2022-08-19T00:23:55;3.83;;;3.20;;
36423;SDS011;22458;45.328;9.514;2022-08-19T00:26:28;3.38;;;2.15;;
36423;SDS011;22458;45.328;9.514;2022-08-19T00:28:54;6.30;;;2.85;;
36423;SDS011;22458;45.328;9.514;2022-08-19T00:31:20;4.35;;;1.98;;
36423;SDS011;22458;45.328;9.514;2022-08-19T00:33:46;4.60;;;2.53;;
36423;SDS011;22458;45.328;9.514;2022-08-19T00:36:15;3.28;;;2.25;;
36423;SDS011;22458;45.328;9.514;2022-08-19T00:38:41;4.20;;;2.47;;
36423;SDS011;22458;45.328;9.514;2022-08-19T00:41:09;5.40;;;2.50;;
36423;SDS011;22458;45.328;9.514;2022-08-19T00:43:37;2.88;;;2.50;;
36423;SDS011;22458;45.328;9.514;2022-08-19T00:46:04;4.65;;;2.53;;
36423;SDS011;22458;45.328;9.514;2022-08-19T00:48:30;4.38;;;2.70;;
36423;SDS011;22458;45.328;9.514;2022-08-19T00:50:57;4.30;;;2.33;;
36423;SDS011;22458;45.328;9.514;2022-08-19T00:53:24;4.32;;;2.50;;
36423;SDS011;22458;45.328;9.514;2022-08-19T00:55:54;5.15;;;2.67;;
36423;SDS011;22458;45.328;9.514;2022-08-19T00:58:24;4.68;;;2.67;;
36423;SDS011;22458;45.328;9.514;2022-08-19T01:00:54;4.13;;;2.30;;
36423;SDS011;22458;45.328;9.514;2022-08-19T01:03:20;6.03;;;2.50;;
36423;SDS011;22458;45.328;9.514;2022-08-19T01:05:48;5.18;;;2.40;;
36423;SDS011;22458;45.328;9.514;2022-08-19T01:08:17;3.75;;;2.58;;
36423;SDS011;22458;45.328;9.514;2022-08-19T01:10:54;5.70;;;3.10;;
36423;SDS011;22458;45.328;9.514;2022-08-19T01:13:23;3.55;;;2.47;;
36423;SDS011;22458;45.328;9.514;2022-08-19T01:15:55;3.30;;;2.53;;
36423;SDS011;22458;45.328;9.514;2022-08-19T01:18:31;4.68;;;3.13;;
36423;SDS011;22458;45.328;9.514;2022-08-19T01:21:02;3.78;;;2.63;;
36423;SDS011;22458;45.328;9.514;2022-08-19T01:23:33;5.80;;;2.80;;
36423;SDS011;22458;45.328;9.514;2022-08-19T01:26:09;4.13;;;2.92;;
36423;SDS011;22458;45.328;9.514;2022-08-19T01:28:41;4.72;;;2.70;;
36423;SDS011;22458;45.328;9.514;2022-08-19T01:31:09;4.72;;;2.95;;
36423;SDS011;22458;45.328;9.514;2022-08-19T01:33:39;3.78;;;2.80;;
36423;SDS011;22458;45.328;9.514;2022-08-19T01:36:06;4.10;;;3.08;;
36423;SDS011;22458;45.328;9.514;2022-08-19T01:38:36;4.20;;;2.75;;
36423;SDS011;22458;45.328;9.514;2022-08-19T01:41:03;6.93;;;2.80;;
36423;SDS011;22458;45.328;9.514;2022-08-19T01:43:29;5.90;;;3.15;;
36423;SDS011;22458;45.328;9.514;2022-08-19T01:45:55;4.35;;;3.30;;
36423;SDS011;22458;45.328;9.514;2022-08-19T01:48:21;3.22;;;2.70;;
36423;SDS011;22458;45.328;9.514;2022-08-19T01:50:47;10.90;;;3.88;;
36423;SDS011;22458;45.328;9.514;2022-08-19T01:53:16;3.78;;;2.47;;
36423;SDS011;22458;45.328;9.514;2022-08-19T01:55:43;4.03;;;2.60;;
36423;SDS011;22458;45.328;9.514;2022-08-19T01:58:12;5.18;;;2.97;;
36423;SDS011;22458;45.328;9.514;2022-08-19T02:00:42;3.38;;;2.42;;
36423;SDS011;22458;45.328;9.514;2022-08-19T02:03:08;5.93;;;2.63;;
36423;SDS011;22458;45.328;9.514;2022-08-19T02:05:36;4.82;;;2.55;;
36423;SDS011;22458;45.328;9.514;2022-08-19T02:08:02;5.03;;;2.50;;
36423;SDS011;22458;45.328;9.514;2022-08-19T02:10:28;3.78;;;2.78;;
36423;SDS011;22458;45.328;9.514;2022-08-19T02:12:54;3.83;;;2.85;;
36423;SDS011;22458;45.328;9.514;2022-08-19T02:15:20;3.97;;;2.60;;
36423;SDS011;22458;45.328;9.514;2022-08-19T02:17:47;4.80;;;2.65;;
36423;SDS011;22458;45.328;9.514;2022-08-19T02:20:13;3.67;;;2.95;;
36423;SDS011;22458;45.328;9.514;2022-08-19T02:22:40;6.13;;;2.90;;
36423;SDS011;22458;45.328;9.514;2022-08-19T02:25:08;4.15;;;2.55;;
36423;SDS011;22458;45.328;9.514;2022-08-19T02:27:35;2.90;;;2.22;;
36423;SDS011;22458;45.328;9.514;2022-08-19T02:30:01;6.00;;;2.85;;
36423;SDS011;22458;45.328;9.514;2022-08-19T02:32:28;5.30;;;2.85;;
36423;SDS011;22458;45.328;9.514;2022-08-19T02:34:55;4.07;;;3.30;;
36423;SDS011;22458;45.328;9.514;2022-08-19T02:37:21;4.13;;;3.20;;
36423;SDS011;22458;45.328;9.514;2022-08-19T02:40:05;3.50;;;2.92;;
36423;SDS011;22458;45.328;9.514;2022-08-19T02:42:31;5.45;;;2.90;;
36423;SDS011;22458;45.328;9.514;2022-08-19T02:44:57;7.05;;;3.47;;
36423;SDS011;22458;45.328;9.514;2022-08-19T02:47:23;5.38;;;3.45;;
36423;SDS011;22458;45.328;9.514;2022-08-19T02:49:49;7.28;;;3.47;;
36423;SDS011;22458;45.328;9.514;2022-08-19T02:52:15;5.18;;;3.40;;
36423;SDS011;22458;45.328;9.514;2022-08-19T02:54:41;4.40;;;3.25;;
36423;SDS011;22458;45.328;9.514;2022-08-19T02:57:07;9.10;;;3.25;;
36423;SDS011;22458;45.328;9.514;2022-08-19T02:59:33;5.70;;;3.60;;
36423;SDS011;22458;45.328;9.514;2022-08-19T03:01:59;3.70;;;2.92;;
36423;SDS011;22458;45.328;9.514;2022-08-19T03:04:24;4.57;;;3.83;;
36423;SDS011;22458;45.328;9.514;2022-08-19T03:06:50;3.97;;;3.30;;
36423;SDS011;22458;45.328;9.514;2022-08-19T03:09:17;5.38;;;3.83;;
36423;SDS011;22458;45.328;9.514;2022-08-19T03:11:44;5.72;;;3.97;;
36423;SDS011;22458;45.328;9.514;2022-08-19T03:14:11;4.78;;;4.22;;
36423;SDS011;22458;45.328;9.514;2022-08-19T03:16:45;6.32;;;4.00;;
36423;SDS011;22458;45.328;9.514;2022-08-19T03:19:13;5.60;;;3.95;;
36423;SDS011;22458;45.328;9.514;2022-08-19T03:21:42;5.00;;;3.72;;
36423;SDS011;22458;45.328;9.514;2022-08-19T03:24:12;5.18;;;4.20;;
36423;SDS011;22458;45.328;9.514;2022-08-19T03:26:42;7.30;;;4.38;;
36423;SDS011;22458;45.328;9.514;2022-08-19T03:29:10;5.75;;;4.35;;
36423;SDS011;22458;45.328;9.514;2022-08-19T03:31:36;5.20;;;3.85;;
36423;SDS011;22458;45.328;9.514;2022-08-19T03:34:04;8.25;;;5.40;;
36423;SDS011;22458;45.328;9.514;2022-08-19T03:36:30;5.15;;;4.43;;
36423;SDS011;22458;45.328;9.514;2022-08-19T03:38:57;7.50;;;4.43;;
36423;SDS011;22458;45.328;9.514;2022-08-19T03:41:26;7.10;;;4.45;;
36423;SDS011;22458;45.328;9.514;2022-08-19T03:43:55;7.85;;;4.78;;
36423;SDS011;22458;45.328;9.514;2022-08-19T03:46:22;6.07;;;4.75;;
36423;SDS011;22458;45.328;9.514;2022-08-19T03:51:23;5.13;;;3.45;;
36423;SDS011;22458;45.328;9.514;2022-08-19T03:53:54;5.50;;;3.13;;
36423;SDS011;22458;45.328;9.514;2022-08-19T03:56:20;4.50;;;3.42;;
36423;SDS011;22458;45.328;9.514;2022-08-19T03:58:47;6.20;;;4.18;;
36423;SDS011;22458;45.328;9.514;2022-08-19T04:01:17;4.88;;;3.25;;
36423;SDS011;22458;45.328;9.514;2022-08-19T04:03:45;5.78;;;4.25;;
36423;SDS011;22458;45.328;9.514;2022-08-19T04:08:39;4.20;;;2.97;;
36423;SDS011;22458;45.328;9.514;2022-08-19T04:11:06;4.47;;;3.22;;
36423;SDS011;22458;45.328;9.514;2022-08-19T04:13:34;7.00;;;4.60;;
36423;SDS011;22458;45.328;9.514;2022-08-19T04:16:00;4.50;;;3.20;;
36423;SDS011;22458;45.328;9.514;2022-08-19T04:18:25;4.88;;;3.17;;
36423;SDS011;22458;45.328;9.514;2022-08-19T04:20:51;5.07;;;3.30;;
36423;SDS011;22458;45.328;9.514;2022-08-19T04:23:17;7.55;;;3.40;;
36423;SDS011;22458;45.328;9.514;2022-08-19T04:25:43;8.63;;;3.33;;
36423;SDS011;22458;45.328;9.514;2022-08-19T04:28:10;6.40;;;3.65;;
36423;SDS011;22458;45.328;9.514;2022-08-19T04:30:39;3.63;;;3.08;;
36423;SDS011;22458;45.328;9.514;2022-08-19T04:33:14;5.78;;;3.72;;
36423;SDS011;22458;45.328;9.514;2022-08-19T04:35:45;4.43;;;2.58;;
36423;SDS011;22458;45.328;9.514;2022-08-19T04:38:14;5.25;;;2.95;;
36423;SDS011;22458;45.328;9.514;2022-08-19T04:40:41;6.38;;;4.25;;
36423;SDS011;22458;45.328;9.514;2022-08-19T04:43:27;4.93;;;3.03;;
36423;SDS011;22458;45.328;9.514;2022-08-19T04:45:53;5.15;;;3.83;;
36423;SDS011;22458;45.328;9.514;2022-08-19T04:48:20;4.40;;;3.13;;
36423;SDS011;22458;45.328;9.514;2022-08-19T04:50:51;6.82;;;3.38;;
36423;SDS011;22458;45.328;9.514;2022-08-19T04:53:25;4.47;;;2.58;;
36423;SDS011;22458;45.328;9.514;2022-08-19T04:55:54;4.47;;;3.08;;
36423;SDS011;22458;45.328;9.514;2022-08-19T04:58:25;3.67;;;2.65;;
36423;SDS011;22458;45.328;9.514;2022-08-19T05:00:52;4.07;;;2.60;;
36423;SDS011;22458;45.328;9.514;2022-08-19T05:03:19;3.80;;;2.80;;
36423;SDS011;22458;45.328;9.514;2022-08-19T05:05:45;3.53;;;2.67;;
36423;SDS011;22458;45.328;9.514;2022-08-19T05:08:17;3.65;;;2.85;;
36423;SDS011;22458;45.328;9.514;2022-08-19T05:10:49;4.53;;;3.03;;
36423;SDS011;22458;45.328;9.514;2022-08-19T05:13:17;3.83;;;2.75;;
36423;SDS011;22458;45.328;9.514;2022-08-19T05:15:44;3.13;;;2.78;;
36423;SDS011;22458;45.328;9.514;2022-08-19T05:18:18;5.22;;;2.97;;
36423;SDS011;22458;45.328;9.514;2022-08-19T05:21:07;5.38;;;2.88;;
36423;SDS011;22458;45.328;9.514;2022-08-19T05:23:52;4.78;;;3.72;;
36423;SDS011;22458;45.328;9.514;2022-08-19T05:26:18;5.50;;;3.65;;
36423;SDS011;22458;45.328;9.514;2022-08-19T05:28:43;4.47;;;3.40;;
36423;SDS011;22458;45.328;9.514;2022-08-19T05:31:09;4.97;;;3.05;;
36423;SDS011;22458;45.328;9.514;2022-08-19T05:33:35;5.10;;;2.97;;
36423;SDS011;22458;45.328;9.514;2022-08-19T05:36:02;4.75;;;3.58;;
36423;SDS011;22458;45.328;9.514;2022-08-19T05:38:28;4.53;;;3.35;;
36423;SDS011;22458;45.328;9.514;2022-08-19T05:40:55;5.95;;;3.42;;
36423;SDS011;22458;45.328;9.514;2022-08-19T05:43:21;7.35;;;3.92;;
36423;SDS011;22458;45.328;9.514;2022-08-19T05:45:46;5.13;;;3.25;;
36423;SDS011;22458;45.328;9.514;2022-08-19T05:48:12;5.95;;;3.58;;
36423;SDS011;22458;45.328;9.514;2022-08-19T05:50:39;4.80;;;3.58;;
36423;SDS011;22458;45.328;9.514;2022-08-19T05:53:06;4.53;;;3.25;;
36423;SDS011;22458;45.328;9.514;2022-08-19T05:55:33;6.22;;;3.53;;
36423;SDS011;22458;45.328;9.514;2022-08-19T05:58:00;7.25;;;3.95;;
36423;SDS011;22458;45.328;9.514;2022-08-19T06:00:26;6.43;;;3.92;;
36423;SDS011;22458;45.328;9.514;2022-08-19T06:02:55;5.18;;;3.15;;
36423;SDS011;22458;45.328;9.514;2022-08-19T06:05:27;4.50;;;3.33;;
36423;SDS011;22458;45.328;9.514;2022-08-19T06:10:24;6.85;;;3.67;;
36423;SDS011;22458;45.328;9.514;2022-08-19T06:12:51;4.47;;;3.50;;
36423;SDS011;22458;45.328;9.514;2022-08-19T06:15:17;5.57;;;4.55;;
36423;SDS011;22458;45.328;9.514;2022-08-19T06:17:43;5.93;;;4.20;;
36423;SDS011;22458;45.328;9.514;2022-08-19T06:20:10;5.38;;;3.50;;
36423;SDS011;22458;45.328;9.514;2022-08-19T06:25:05;4.75;;;3.95;;
36423;SDS011;22458;45.328;9.514;2022-08-19T06:27:32;6.25;;;4.72;;
36423;SDS011;22458;45.328;9.514;2022-08-19T06:29:58;9.18;;;4.50;;
36423;SDS011;22458;45.328;9.514;2022-08-19T06:32:24;6.85;;;3.92;;
36423;SDS011;22458;45.328;9.514;2022-08-19T06:34:50;6.43;;;4.03;;
36423;SDS011;22458;45.328;9.514;2022-08-19T06:37:16;6.80;;;4.53;;
36423;SDS011;22458;45.328;9.514;2022-08-19T06:39:42;6.40;;;4.15;;
36423;SDS011;22458;45.328;9.514;2022-08-19T06:42:10;7.35;;;4.25;;
36423;SDS011;22458;45.328;9.514;2022-08-19T06:44:40;6.70;;;4.75;;
36423;SDS011;22458;45.328;9.514;2022-08-19T06:47:07;6.63;;;4.22;;
36423;SDS011;22458;45.328;9.514;2022-08-19T06:49:34;5.32;;;4.22;;
36423;SDS011;22458;45.328;9.514;2022-08-19T06:52:00;6.85;;;4.70;;
36423;SDS011;22458;45.328;9.514;2022-08-19T06:54:27;7.07;;;5.22;;
36423;SDS011;22458;45.328;9.514;2022-08-19T06:56:54;6.43;;;5.13;;
36423;SDS011;22458;45.328;9.514;2022-08-19T06:59:22;8.32;;;5.32;;
36423;SDS011;22458;45.328;9.514;2022-08-19T07:01:53;8.85;;;5.28;;
36423;SDS011;22458;45.328;9.514;2022-08-19T07:04:24;7.63;;;5.40;;
36423;SDS011;22458;45.328;9.514;2022-08-19T07:06:57;7.70;;;5.10;;
36423;SDS011;22458;45.328;9.514;2022-08-19T07:09:28;6.88;;;4.15;;
36423;SDS011;22458;45.328;9.514;2022-08-19T07:11:54;6.25;;;4.05;;
36423;SDS011;22458;45.328;9.514;2022-08-19T07:14:22;6.55;;;3.58;;
36423;SDS011;22458;45.328;9.514;2022-08-19T07:16:50;5.43;;;3.55;;
36423;SDS011;22458;45.328;9.514;2022-08-19T07:19:20;5.15;;;3.72;;
36423;SDS011;22458;45.328;9.514;2022-08-19T07:21:47;4.00;;;3.20;;
36423;SDS011;22458;45.328;9.514;2022-08-19T07:24:18;4.40;;;3.08;;
36423;SDS011;22458;45.328;9.514;2022-08-19T07:26:45;4.47;;;3.10;;
36423;SDS011;22458;45.328;9.514;2022-08-19T07:29:12;5.68;;;3.72;;
36423;SDS011;22458;45.328;9.514;2022-08-19T07:31:38;3.75;;;3.10;;
36423;SDS011;22458;45.328;9.514;2022-08-19T07:34:05;3.28;;;2.15;;
36423;SDS011;22458;45.328;9.514;2022-08-19T07:36:32;6.05;;;3.72;;
36423;SDS011;22458;45.328;9.514;2022-08-19T07:39:02;3.30;;;2.42;;
36423;SDS011;22458;45.328;9.514;2022-08-19T07:41:31;3.10;;;2.42;;
36423;SDS011;22458;45.328;9.514;2022-08-19T07:44:00;3.10;;;1.90;;
36423;SDS011;22458;45.328;9.514;2022-08-19T07:46:32;2.05;;;1.00;;
36423;SDS011;22458;45.328;9.514;2022-08-19T07:49:00;3.47;;;1.45;;
36423;SDS011;22458;45.328;9.514;2022-08-19T07:51:27;2.58;;;1.48;;
36423;SDS011;22458;45.328;9.514;2022-08-19T07:53:53;2.30;;;1.50;;
36423;SDS011;22458;45.328;9.514;2022-08-19T07:56:19;3.08;;;2.70;;
36423;SDS011;22458;45.328;9.514;2022-08-19T07:58:46;4.88;;;3.45;;
36423;SDS011;22458;45.328;9.514;2022-08-19T08:01:15;5.18;;;3.72;;
36423;SDS011;22458;45.328;9.514;2022-08-19T08:03:46;5.57;;;3.97;;
36423;SDS011;22458;45.328;9.514;2022-08-19T08:06:31;4.40;;;2.92;;
36423;SDS011;22458;45.328;9.514;2022-08-19T08:09:17;5.75;;;3.72;;
36423;SDS011;22458;45.328;9.514;2022-08-19T08:11:52;3.13;;;2.65;;
36423;SDS011;22458;45.328;9.514;2022-08-19T08:14:22;3.45;;;2.72;;
36423;SDS011;22458;45.328;9.514;2022-08-19T08:16:51;10.80;;;6.53;;
36423;SDS011;22458;45.328;9.514;2022-08-19T08:19:18;7.65;;;4.13;;
36423;SDS011;22458;45.328;9.514;2022-08-19T08:21:46;7.18;;;4.60;;
36423;SDS011;22458;45.328;9.514;2022-08-19T08:24:13;4.88;;;3.17;;
36423;SDS011;22458;45.328;9.514;2022-08-19T08:26:39;4.90;;;3.58;;
36423;SDS011;22458;45.328;9.514;2022-08-19T08:29:06;5.93;;;3.28;;
36423;SDS011;22458;45.328;9.514;2022-08-19T08:31:36;4.60;;;3.55;;
36423;SDS011;22458;45.328;9.514;2022-08-19T08:34:02;4.28;;;3.17;;
36423;SDS011;22458;45.328;9.514;2022-08-19T08:36:29;3.50;;;3.00;;
36423;SDS011;22458;45.328;9.514;2022-08-19T08:38:58;3.92;;;3.15;;
36423;SDS011;22458;45.328;9.514;2022-08-19T08:41:31;4.53;;;3.30;;
36423;SDS011;22458;45.328;9.514;2022-08-19T08:44:06;4.28;;;3.03;;
36423;SDS011;22458;45.328;9.514;2022-08-19T08:46:41;4.93;;;3.17;;
36423;SDS011;22458;45.328;9.514;2022-08-19T08:54:37;4.85;;;3.45;;
36423;SDS011;22458;45.328;9.514;2022-08-19T08:57:12;3.45;;;2.90;;
36423;SDS011;22458;45.328;9.514;2022-08-19T08:59:43;4.82;;;3.60;;
36423;SDS011;22458;45.328;9.514;2022-08-19T09:02:16;5.38;;;2.58;;
36423;SDS011;22458;45.328;9.514;2022-08-19T09:04:42;3.33;;;2.90;;
36423;SDS011;22458;45.328;9.514;2022-08-19T09:07:22;4.13;;;2.72;;
36423;SDS011;22458;45.328;9.514;2022-08-19T09:12:44;3.10;;;2.40;;
36423;SDS011;22458;45.328;9.514;2022-08-19T09:15:22;4.15;;;2.47;;
36423;SDS011;22458;45.328;9.514;2022-08-19T09:17:53;3.78;;;2.42;;
36423;SDS011;22458;45.328;9.514;2022-08-19T09:20:20;3.30;;;2.30;;
36423;SDS011;22458;45.328;9.514;2022-08-19T09:22:49;4.30;;;2.63;;
36423;SDS011;22458;45.328;9.514;2022-08-19T09:25:16;3.15;;;1.70;;
36423;SDS011;22458;45.328;9.514;2022-08-19T09:27:45;2.15;;;1.63;;
36423;SDS011;22458;45.328;9.514;2022-08-19T09:30:19;2.65;;;1.70;;
36423;SDS011;22458;45.328;9.514;2022-08-19T09:32:47;1.98;;;1.48;;
36423;SDS011;22458;45.328;9.514;2022-08-19T09:35:13;2.33;;;1.60;;
36423;SDS011;22458;45.328;9.514;2022-08-19T09:37:40;2.40;;;1.95;;
36423;SDS011;22458;45.328;9.514;2022-08-19T09:40:07;2.92;;;2.10;;
36423;SDS011;22458;45.328;9.514;2022-08-19T09:42:34;2.63;;;1.60;;
36423;SDS011;22458;45.328;9.514;2022-08-19T09:45:00;2.28;;;1.90;;
36423;SDS011;22458;45.328;9.514;2022-08-19T09:47:26;2.92;;;2.33;;
36423;SDS011;22458;45.328;9.514;2022-08-19T09:49:52;3.40;;;2.38;;
36423;SDS011;22458;45.328;9.514;2022-08-19T09:52:18;4.10;;;2.90;;
36423;SDS011;22458;45.328;9.514;2022-08-19T09:54:43;3.97;;;2.20;;
36423;SDS011;22458;45.328;9.514;2022-08-19T09:57:09;3.78;;;3.05;;
36423;SDS011;22458;45.328;9.514;2022-08-19T09:59:35;3.30;;;2.33;;
36423;SDS011;22458;45.328;9.514;2022-08-19T10:02:00;5.68;;;5.03;;
36423;SDS011;22458;45.328;9.514;2022-08-19T10:04:26;2.25;;;2.05;;
36423;SDS011;22458;45.328;9.514;2022-08-19T10:07:12;1.80;;;1.33;;
36423;SDS011;22458;45.328;9.514;2022-08-19T10:09:39;2.65;;;2.33;;
36423;SDS011;22458;45.328;9.514;2022-08-19T10:12:06;2.67;;;2.28;;
36423;SDS011;22458;45.328;9.514;2022-08-19T10:14:32;2.58;;;2.38;;
36423;SDS011;22458;45.328;9.514;2022-08-19T10:16:58;1.45;;;1.30;;
36423;SDS011;22458;45.328;9.514;2022-08-19T10:19:26;5.22;;;2.70;;
36423;SDS011;22458;45.328;9.514;2022-08-19T10:21:57;5.35;;;3.92;;
36423;SDS011;22458;45.328;9.514;2022-08-19T10:24:23;3.10;;;2.00;;
36423;SDS011;22458;45.328;9.514;2022-08-19T10:26:50;2.40;;;1.75;;
36423;SDS011;22458;45.328;9.514;2022-08-19T10:29:16;2.38;;;2.00;;
36423;SDS011;22458;45.328;9.514;2022-08-19T10:31:42;4.90;;;3.20;;
36423;SDS011;22458;45.328;9.514;2022-08-19T10:34:08;4.18;;;1.75;;
36423;SDS011;22458;45.328;9.514;2022-08-19T10:36:35;1.20;;;1.08;;
36423;SDS011;22458;45.328;9.514;2022-08-19T10:39:06;1.23;;;0.90;;
36423;SDS011;22458;45.328;9.514;2022-08-19T10:41:34;3.40;;;2.85;;
36423;SDS011;22458;45.328;9.514;2022-08-19T10:44:08;3.67;;;2.92;;
36423;SDS011;22458;45.328;9.514;2022-08-19T10:46:39;4.78;;;3.90;;
36423;SDS011;22458;45.328;9.514;2022-08-19T10:49:07;1.70;;;1.15;;
36423;SDS011;22458;45.328;9.514;2022-08-19T10:51:34;1.08;;;0.80;;
36423;SDS011;22458;45.328;9.514;2022-08-19T10:54:19;2.47;;;0.60;;
36423;SDS011;22458;45.328;9.514;2022-08-19T10:56:45;2.47;;;1.48;;
36423;SDS011;22458;45.328;9.514;2022-08-19T10:59:18;1.48;;;1.02;;
36423;SDS011;22458;45.328;9.514;2022-08-19T11:01:49;2.85;;;1.48;;
36423;SDS011;22458;45.328;9.514;2022-08-19T11:04:16;1.60;;;0.80;;
36423;SDS011;22458;45.328;9.514;2022-08-19T11:06:45;5.90;;;5.40;;
36423;SDS011;22458;45.328;9.514;2022-08-19T11:09:13;6.25;;;5.65;;
36423;SDS011;22458;45.328;9.514;2022-08-19T11:11:43;2.00;;;1.30;;
36423;SDS011;22458;45.328;9.514;2022-08-19T11:14:10;5.25;;;4.68;;
36423;SDS011;22458;45.328;9.514;2022-08-19T11:16:39;3.78;;;2.92;;
36423;SDS011;22458;45.328;9.514;2022-08-19T11:19:06;4.55;;;3.97;;
36423;SDS011;22458;45.328;9.514;2022-08-19T11:21:37;2.85;;;2.17;;
36423;SDS011;22458;45.328;9.514;2022-08-19T11:24:12;2.85;;;2.00;;
36423;SDS011;22458;45.328;9.514;2022-08-19T11:26:49;4.30;;;1.70;;
36423;SDS011;22458;45.328;9.514;2022-08-19T11:29:19;3.10;;;2.40;;
36423;SDS011;22458;45.328;9.514;2022-08-19T11:31:46;1.45;;;1.05;;
36423;SDS011;22458;45.328;9.514;2022-08-19T11:34:16;1.35;;;1.13;;
36423;SDS011;22458;45.328;9.514;2022-08-19T11:36:50;3.60;;;1.88;;
36423;SDS011;22458;45.328;9.514;2022-08-19T11:39:17;1.60;;;0.88;;
36423;SDS011;22458;45.328;9.514;2022-08-19T11:41:45;2.38;;;1.27;;
36423;SDS011;22458;45.328;9.514;2022-08-19T11:44:11;3.22;;;1.00;;
36423;SDS011;22458;45.328;9.514;2022-08-19T11:46:39;1.90;;;0.93;;
36423;SDS011;22458;45.328;9.514;2022-08-19T11:49:06;2.70;;;0.80;;
36423;SDS011;22458;45.328;9.514;2022-08-19T11:51:32;1.15;;;0.73;;
36423;SDS011;22458;45.328;9.514;2022-08-19T11:53:59;3.40;;;2.10;;
36423;SDS011;22458;45.328;9.514;2022-08-19T11:56:25;1.92;;;0.70;;
36423;SDS011;22458;45.328;9.514;2022-08-19T11:58:52;3.55;;;0.70;;
36423;SDS011;22458;45.328;9.514;2022-08-19T12:01:20;1.33;;;0.55;;
36423;SDS011;22458;45.328;9.514;2022-08-19T12:03:47;0.70;;;0.60;;
36423;SDS011;22458;45.328;9.514;2022-08-19T12:06:16;2.42;;;0.70;;
36423;SDS011;22458;45.328;9.514;2022-08-19T12:08:44;0.77;;;0.43;;
36423;SDS011;22458;45.328;9.514;2022-08-19T12:11:12;0.70;;;0.40;;
36423;SDS011;22458;45.328;9.514;2022-08-19T12:13:38;2.33;;;0.65;;
36423;SDS011;22458;45.328;9.514;2022-08-19T12:16:13;1.33;;;0.73;;
36423;SDS011;22458;45.328;9.514;2022-08-19T12:18:41;1.17;;;0.65;;
36423;SDS011;22458;45.328;9.514;2022-08-19T12:21:17;0.93;;;0.60;;
36423;SDS011;22458;45.328;9.514;2022-08-19T12:23:52;6.07;;;4.00;;
36423;SDS011;22458;45.328;9.514;2022-08-19T12:26:20;5.22;;;3.15;;
36423;SDS011;22458;45.328;9.514;2022-08-19T12:28:46;4.15;;;1.95;;
36423;SDS011;22458;45.328;9.514;2022-08-19T12:31:13;5.43;;;4.10;;
36423;SDS011;22458;45.328;9.514;2022-08-19T12:33:40;5.57;;;3.67;;
36423;SDS011;22458;45.328;9.514;2022-08-19T12:36:07;3.72;;;2.83;;
36423;SDS011;22458;45.328;9.514;2022-08-19T12:38:35;3.90;;;2.53;;
36423;SDS011;22458;45.328;9.514;2022-08-19T12:41:03;2.40;;;0.93;;
36423;SDS011;22458;45.328;9.514;2022-08-19T12:43:31;2.67;;;1.77;;
36423;SDS011;22458;45.328;9.514;2022-08-19T12:45:59;2.50;;;1.40;;
36423;SDS011;22458;45.328;9.514;2022-08-19T12:48:25;2.20;;;1.25;;
36423;SDS011;22458;45.328;9.514;2022-08-19T12:50:54;14.52;;;7.68;;
36423;SDS011;22458;45.328;9.514;2022-08-19T12:53:19;4.85;;;2.72;;
36423;SDS011;22458;45.328;9.514;2022-08-19T12:55:45;4.60;;;2.53;;
36423;SDS011;22458;45.328;9.514;2022-08-19T12:58:11;4.22;;;2.60;;
36423;SDS011;22458;45.328;9.514;2022-08-19T13:00:38;3.47;;;1.75;;
36423;SDS011;22458;45.328;9.514;2022-08-19T13:03:03;2.75;;;1.48;;
36423;SDS011;22458;45.328;9.514;2022-08-19T13:05:30;2.67;;;1.25;;
36423;SDS011;22458;45.328;9.514;2022-08-19T13:10:26;3.75;;;2.05;;
36423;SDS011;22458;45.328;9.514;2022-08-19T13:12:54;2.38;;;1.08;;
36423;SDS011;22458;45.328;9.514;2022-08-19T13:15:21;1.63;;;1.00;;
36423;SDS011;22458;45.328;9.514;2022-08-19T13:17:48;3.33;;;2.00;;
36423;SDS011;22458;45.328;9.514;2022-08-19T13:20:16;2.10;;;1.20;;
36423;SDS011;22458;45.328;9.514;2022-08-19T13:22:44;2.63;;;1.10;;
36423;SDS011;22458;45.328;9.514;2022-08-19T13:25:10;5.88;;;2.72;;
36423;SDS011;22458;45.328;9.514;2022-08-19T13:27:37;3.88;;;1.98;;
36423;SDS011;22458;45.328;9.514;2022-08-19T13:30:04;3.47;;;2.45;;
36423;SDS011;22458;45.328;9.514;2022-08-19T13:32:50;11.52;;;7.15;;
36423;SDS011;22458;45.328;9.514;2022-08-19T13:35:34;3.75;;;2.00;;
36423;SDS011;22458;45.328;9.514;2022-08-19T13:38:00;2.90;;;1.92;;
36423;SDS011;22458;45.328;9.514;2022-08-19T13:40:30;1.85;;;1.48;;
36423;SDS011;22458;45.328;9.514;2022-08-19T13:42:59;1.27;;;0.80;;
36423;SDS011;22458;45.328;9.514;2022-08-19T13:45:26;1.13;;;0.90;;
36423;SDS011;22458;45.328;9.514;2022-08-19T13:47:54;1.52;;;1.02;;
36423;SDS011;22458;45.328;9.514;2022-08-19T13:50:23;1.85;;;0.60;;
36423;SDS011;22458;45.328;9.514;2022-08-19T13:52:51;0.85;;;0.68;;
36423;SDS011;22458;45.328;9.514;2022-08-19T13:55:17;1.80;;;0.73;;
36423;SDS011;22458;45.328;9.514;2022-08-19T13:57:43;1.15;;;0.80;;
36423;SDS011;22458;45.328;9.514;2022-08-19T14:00:15;2.25;;;0.93;;
36423;SDS011;22458;45.328;9.514;2022-08-19T14:02:43;1.88;;;1.08;;
36423;SDS011;22458;45.328;9.514;2022-08-19T14:05:11;2.03;;;0.70;;
36423;SDS011;22458;45.328;9.514;2022-08-19T14:07:39;3.25;;;1.15;;
36423;SDS011;22458;45.328;9.514;2022-08-19T14:10:06;1.20;;;0.98;;
36423;SDS011;22458;45.328;9.514;2022-08-19T14:12:33;1.85;;;1.63;;
36423;SDS011;22458;45.328;9.514;2022-08-19T14:15:00;1.63;;;1.38;;
36423;SDS011;22458;45.328;9.514;2022-08-19T14:17:28;1.98;;;1.20;;
36423;SDS011;22458;45.328;9.514;2022-08-19T14:19:58;2.28;;;0.98;;
36423;SDS011;22458;45.328;9.514;2022-08-19T14:22:25;4.78;;;1.05;;
36423;SDS011;22458;45.328;9.514;2022-08-19T14:24:54;1.33;;;0.80;;
36423;SDS011;22458;45.328;9.514;2022-08-19T14:27:24;1.75;;;0.82;;
36423;SDS011;22458;45.328;9.514;2022-08-19T14:29:50;1.58;;;0.75;;
36423;SDS011;22458;45.328;9.514;2022-08-19T14:32:17;1.38;;;0.98;;
36423;SDS011;22458;45.328;9.514;2022-08-19T14:34:42;1.25;;;0.80;;
36423;SDS011;22458;45.328;9.514;2022-08-19T14:37:11;1.95;;;1.75;;
36423;SDS011;22458;45.328;9.514;2022-08-19T14:39:40;2.47;;;1.52;;
36423;SDS011;22458;45.328;9.514;2022-08-19T14:42:10;0.88;;;0.52;;
36423;SDS011;22458;45.328;9.514;2022-08-19T14:44:38;2.80;;;1.08;;
36423;SDS011;22458;45.328;9.514;2022-08-19T14:47:03;1.63;;;1.05;;
36423;SDS011;22458;45.328;9.514;2022-08-19T14:49:30;1.35;;;1.05;;
36423;SDS011;22458;45.328;9.514;2022-08-19T14:51:55;0.77;;;0.50;;
36423;SDS011;22458;45.328;9.514;2022-08-19T14:54:22;1.25;;;0.93;;
36423;SDS011;22458;45.328;9.514;2022-08-19T14:56:48;1.15;;;0.68;;
36423;SDS011;22458;45.328;9.514;2022-08-19T14:59:14;2.47;;;0.93;;
36423;SDS011;22458;45.328;9.514;2022-08-19T15:01:39;1.92;;;0.75;;
36423;SDS011;22458;45.328;9.514;2022-08-19T15:04:05;5.63;;;2.92;;
36423;SDS011;22458;45.328;9.514;2022-08-19T15:06:31;4.82;;;2.75;;
36423;SDS011;22458;45.328;9.514;2022-08-19T15:08:58;1.98;;;1.20;;
36423;SDS011;22458;45.328;9.514;2022-08-19T15:11:31;4.90;;;2.35;;
36423;SDS011;22458;45.328;9.514;2022-08-19T15:13:58;4.15;;;2.22;;
36423;SDS011;22458;45.328;9.514;2022-08-19T15:16:27;5.72;;;2.65;;